createdAt,value
2023-04-15T20:20:59.344Z,958.4962
2023-04-15T20:21:52.679Z,958.5109
2023-04-15T20:22:55.032Z,958.5285
2023-04-15T20:23:57.647Z,958.5269
2023-04-15T20:25:00.213Z,958.5177
2023-04-15T20:26:02.808Z,958.5115
2023-04-15T20:27:05.356Z,958.5077
2023-04-15T20:28:07.956Z,958.5000
2023-04-15T20:29:10.515Z,958.5185
2023-04-15T20:30:13.101Z,958.5208
2023-04-15T20:31:15.696Z,958.5131
2023-04-15T20:32:18.296Z,958.5177
2023-04-15T20:33:20.816Z,958.5300
2023-04-15T20:34:23.418Z,958.5715
2023-04-15T20:35:25.963Z,958.5739
2023-04-15T20:36:28.567Z,958.5931
2023-04-15T20:37:31.119Z,958.5746
2023-04-15T20:38:33.723Z,958.5900
2023-04-15T20:39:36.282Z,958.5839
2023-04-15T20:40:40.545Z,958.5608
2023-04-15T20:41:41.451Z,958.5900
2023-04-15T20:42:44.034Z,958.6200
2023-04-15T20:43:46.589Z,958.6008
2023-04-15T20:44:49.181Z,958.5638
2023-04-15T20:45:51.750Z,958.5823
2023-04-15T20:46:54.523Z,958.6308
2023-04-15T20:47:56.926Z,958.6215
2023-04-15T20:48:59.502Z,958.6315
2023-04-15T20:50:02.338Z,958.6623
2023-04-15T20:51:04.658Z,958.7008
2023-04-15T20:52:07.228Z,958.7085
2023-04-15T20:53:09.829Z,958.7047
2023-04-15T20:54:12.397Z,958.6653
2023-04-15T20:55:14.991Z,958.6646
2023-04-15T20:56:17.523Z,958.6862
2023-04-15T20:57:20.162Z,958.6870
2023-04-15T20:58:22.675Z,958.6954
2023-04-15T20:59:25.283Z,958.7062
2023-04-15T21:00:27.893Z,958.7146
2023-04-15T21:01:30.441Z,958.6838
2023-04-15T21:02:33.089Z,958.6484
2023-04-15T21:03:35.659Z,958.6077
2023-04-15T21:04:38.167Z,958.5916
2023-04-15T21:05:40.761Z,958.5638
2023-04-15T21:06:43.317Z,958.5323
2023-04-15T21:07:45.984Z,958.5415
2023-04-15T21:08:48.515Z,958.5700
2023-04-15T21:09:51.065Z,958.5961
2023-04-15T21:10:53.619Z,958.6369
2023-04-15T21:12:00.979Z,958.6277
2023-04-15T21:12:59.781Z,958.5869
2023-04-15T21:14:01.389Z,958.6208
2023-04-15T21:15:03.942Z,958.6370
2023-04-15T21:16:07.943Z,958.6370
2023-04-15T21:17:11.223Z,958.6234
2023-04-15T21:18:11.689Z,958.6693
2023-04-15T21:19:14.246Z,958.6877
2023-04-15T21:20:16.858Z,958.7215
2023-04-15T21:21:19.402Z,958.7208
2023-04-15T21:22:22.009Z,958.7308
2023-04-15T21:23:24.550Z,958.7300
2023-04-15T21:24:27.149Z,958.7231
2023-04-15T21:25:29.701Z,958.7077
2023-04-15T21:26:32.324Z,958.6792
2023-04-15T21:27:34.856Z,958.6546
2023-04-15T21:28:37.464Z,958.6908
2023-04-15T21:29:40.015Z,958.6962
2023-04-15T21:30:42.652Z,958.7115
2023-04-15T21:31:45.222Z,958.7230
2023-04-15T21:32:47.822Z,958.7446
2023-04-15T21:33:50.337Z,958.7654
2023-04-15T21:34:53.203Z,958.7923
2023-04-15T21:35:55.474Z,958.7915
2023-04-15T21:36:58.075Z,958.8030
2023-04-15T21:38:00.632Z,958.8077
2023-04-15T21:39:03.323Z,958.7977
2023-04-15T21:40:05.773Z,958.8270
2023-04-15T21:41:08.390Z,958.8215
2023-04-15T21:42:10.945Z,958.8308
2023-04-15T21:43:13.595Z,958.8277
2023-04-15T21:44:16.196Z,958.8215
2023-04-15T21:45:18.701Z,958.8492
2023-04-15T21:46:25.305Z,958.8615
2023-04-15T21:47:23.888Z,958.8800
2023-04-15T21:48:26.444Z,958.8654
2023-04-15T21:49:29.014Z,958.8700
2023-04-15T21:50:31.579Z,958.9061
2023-04-15T21:51:34.170Z,958.9215
2023-04-15T21:52:36.705Z,958.9215
2023-04-15T21:53:39.306Z,958.9423
2023-04-15T21:54:41.862Z,958.9477
2023-04-15T21:55:44.458Z,958.9654
2023-04-15T21:56:47.017Z,958.9830
2023-04-15T21:57:49.624Z,959.0146
2023-04-15T21:58:52.176Z,959.0223
2023-04-15T21:59:54.786Z,959.0392
2023-04-15T22:00:57.427Z,959.0754
2023-04-15T22:02:00.108Z,959.1177
2023-04-15T22:03:02.654Z,959.1308
2023-04-15T22:04:05.167Z,959.1523
2023-04-15T22:05:07.645Z,959.1823
2023-04-15T22:06:10.286Z,959.1900
2023-04-15T22:07:12.806Z,959.2100
2023-04-15T22:08:15.420Z,959.2585
2023-04-15T22:09:18.042Z,959.3062
2023-04-15T22:10:20.897Z,959.3108
2023-04-15T22:11:23.175Z,959.3231
2023-04-15T22:12:25.739Z,959.3439
2023-04-15T22:13:28.288Z,959.3615
2023-04-15T22:14:30.906Z,959.3508
2023-04-15T22:15:33.449Z,959.3400
2023-04-15T22:16:36.118Z,959.3870
2023-04-15T22:17:38.655Z,959.4131
2023-04-15T22:18:41.312Z,959.4492
2023-04-15T22:19:43.759Z,959.4731
2023-04-15T22:20:46.371Z,959.4977
2023-04-15T22:21:48.920Z,959.4869
2023-04-15T22:22:54.413Z,959.4938
2023-04-15T22:24:34.979Z,959.4830
2023-04-15T22:24:57.680Z,959.5146
2023-04-15T22:25:59.247Z,959.5346
2023-04-15T22:27:01.851Z,959.5092
2023-04-15T22:28:04.405Z,959.4761
2023-04-15T22:29:07.249Z,959.5023
2023-04-15T22:30:09.558Z,959.5085
2023-04-15T22:31:12.180Z,959.5062
2023-04-15T22:32:14.719Z,959.5139
2023-04-15T22:33:17.341Z,959.5346
2023-04-15T22:34:19.896Z,959.5446
2023-04-15T22:35:22.493Z,959.5292
2023-04-15T22:36:25.049Z,959.5453
2023-04-15T22:37:27.650Z,959.5461
2023-04-15T22:38:30.192Z,959.5108
2023-04-15T22:39:32.810Z,959.5062
2023-04-15T22:40:35.371Z,959.5469
2023-04-15T22:41:37.966Z,959.5630
2023-04-15T22:42:40.524Z,959.5692
2023-04-15T22:43:43.120Z,959.5723
2023-04-15T22:44:45.684Z,959.5869
2023-04-15T22:45:48.316Z,959.6100
2023-04-15T22:46:50.841Z,959.6192
2023-04-15T22:47:53.462Z,959.6431
2023-04-15T22:48:56.007Z,959.6638
2023-04-15T22:49:58.636Z,959.6669
2023-04-15T22:51:01.161Z,959.6854
2023-04-15T22:52:03.966Z,959.7062
2023-04-15T22:53:06.333Z,959.7008
2023-04-15T22:54:08.923Z,959.6923
2023-04-15T22:55:11.494Z,959.6700
2023-04-15T22:56:14.095Z,959.6661
2023-04-15T22:57:16.649Z,959.6638
2023-04-15T22:58:19.254Z,959.6623
2023-04-15T22:59:21.808Z,959.6638
2023-04-15T23:00:25.017Z,959.6616
2023-04-15T23:01:27.116Z,959.6738
2023-04-15T23:02:29.734Z,959.6615
2023-04-15T23:03:32.247Z,959.6700
2023-04-15T23:04:35.876Z,959.6777
2023-04-15T23:05:37.340Z,959.6777
2023-04-15T23:06:39.891Z,959.6715
2023-04-15T23:07:42.494Z,959.6761
2023-04-15T23:08:45.052Z,959.6692
2023-04-15T23:09:47.605Z,959.6892
2023-04-15T23:10:50.207Z,959.6870
2023-04-15T23:11:52.770Z,959.6838
2023-04-15T23:12:55.375Z,959.6830
2023-04-15T23:13:57.918Z,959.6915
2023-04-15T23:15:00.537Z,959.6938
2023-04-15T23:16:03.107Z,959.7054
2023-04-15T23:17:05.873Z,959.7115
2023-04-15T23:18:08.315Z,959.7238
2023-04-15T23:19:11.090Z,959.7300
2023-04-15T23:20:13.409Z,959.7346
2023-04-15T23:21:16.022Z,959.7508
2023-04-15T23:22:18.576Z,959.7515
2023-04-15T23:23:21.182Z,959.7531
2023-04-15T23:24:23.725Z,959.7408
2023-04-15T23:25:26.376Z,959.7631
2023-04-15T23:26:28.890Z,959.7785
2023-04-15T23:27:31.491Z,959.7915
2023-04-15T23:28:34.043Z,959.8100
2023-04-15T23:29:36.649Z,959.8223
2023-04-15T23:30:39.203Z,959.8208
2023-04-15T23:31:41.909Z,959.8270
2023-04-15T23:32:44.422Z,959.8292
2023-04-15T23:33:46.980Z,959.8553
2023-04-15T23:34:49.525Z,959.8815
2023-04-15T23:35:52.143Z,959.8985
2023-04-15T23:36:54.686Z,959.9115
2023-04-15T23:37:57.557Z,959.9254
2023-04-15T23:38:59.858Z,959.9554
2023-04-15T23:40:02.462Z,959.9646
2023-04-15T23:41:05.017Z,959.9669
2023-04-15T23:42:07.618Z,959.9654
2023-04-15T23:43:10.169Z,959.9570
2023-04-15T23:44:12.774Z,959.9600
2023-04-15T23:45:15.323Z,959.9730
2023-04-15T23:46:17.970Z,959.9753
2023-04-15T23:47:20.493Z,959.9684
2023-04-15T23:48:23.650Z,959.9684
2023-04-15T23:49:25.652Z,959.9708
2023-04-15T23:50:28.276Z,959.9731
2023-04-15T23:51:30.815Z,959.9777
2023-04-15T23:52:33.413Z,959.9715
2023-04-15T23:53:35.967Z,959.9708
2023-04-15T23:54:38.552Z,959.9600
2023-04-15T23:55:41.163Z,959.9492
2023-04-15T23:56:43.726Z,959.9515
2023-04-15T23:57:46.397Z,959.9585
2023-04-15T23:58:49.089Z,959.9631
2023-04-15T23:59:51.493Z,959.9684
